This is the latest recevied weather packets stored in our database for station/object OH6NMY. If no packets are shown the sender has not sent any weather packets the latest 10 day(s).
| Time | Temp. | Humidity | Pressure | Rain* | Wind** | Luminosity | Snow |
|---|---|---|---|---|---|---|---|
| 1777324063 | 1.11° C | 69% | 1020.6 hPa | 0 mm | - | - | - |
| 1777321774 | 1.11° C | 66% | 1020.7 hPa | 0 mm | - | - | - |
| 1777316914 | 2.78° C | 52% | 1020.2 hPa | 0 mm | - | - | - |
| 1777314213 | 3.89° C | 47% | 1020 hPa | 0 mm | - | - | - |
| 1777313673 | 3.89° C | 47% | 1020.1 hPa | 0 mm | - | - | - |
| 1777312053 | 4.44° C | 45% | 1020 hPa | 0 mm | - | - | - |
| 1777310974 | 5° C | 43% | 1020 hPa | 0 mm | - | - | - |
| 1777309353 | 5.56° C | 43% | 1019.5 hPa | 0 mm | - | - | - |
| 1777304085 | 5.56° C | 46% | 1019.3 hPa | 0 mm | - | - | - |
| 1777302333 | 5.56° C | 48% | 1019.1 hPa | 0 mm | - | - | - |
| 1777301794 | 4.44° C | 52% | 1019 hPa | 0 mm | - | - | - |
| 1777299094 | 4.44° C | 51% | 1019 hPa | 0 mm | - | - | - |
| 1777293153 | 5.56° C | 47% | 1018.3 hPa | 0 mm | - | - | - |
| 1777292073 | 5.56° C | 51% | 1018.2 hPa | 0 mm | - | - | - |
| 1777291664 | 5.56° C | 51% | 1018.3 hPa | 0 mm | - | - | - |
| 1777289373 | 5.56° C | 51% | 1017.9 hPa | 0 mm | - | - | - |
| 1777286673 | 5.56° C | 49% | 1017.8 hPa | 0 mm | - | - | - |
| 1777285053 | 5.56° C | 51% | 1017.6 hPa | 0 mm | - | - | - |
| 1777284513 | 5.56° C | 51% | 1017.8 hPa | 0 mm | - | - | - |
| 1777283434 | 5.56° C | 51% | 1017.6 hPa | 0 mm | - | - | - |
| 1777280193 | 5° C | 55% | 1017.6 hPa | 0 mm | - | - | - |
| 1777279113 | 4.44° C | 57% | 1017.5 hPa | 0 mm | - | - | - |
| 1777278573 | 4.44° C | 58% | 1017.4 hPa | 0 mm | - | - | - |
| 1777278034 | 3.89° C | 58% | 1017.2 hPa | 0 mm | - | - | - |
| 1777275873 | 3.89° C | 59% | 1017.6 hPa | 0 mm | - | - | - |
* Rain latest hour (hover to see other rain measurements)
** Current wind speed in m/s (hover to see current wind gust speed)